02 Jul 2020 17:18 UTC 2020184+17:18 UTC

Overview Datums Bench Marks Data Query Site Visit Daily QC Messages Attributes

043: Nueces Delta 3

27° 53' 1" N   97° 31' 59" W
NUDE3
The Coastal Bend Bays & Estuaries Program Coastal Bend Bays and Estuaries Program

Station Information

Nueces Delta 3
Nueces Delta 3
more pictures
 
Station Name:Nueces Delta 3
DNR ID:043
Location:27° 53' 1" N, 97° 31' 59" W

Water Level Forecasts

Latest Observations

Series Metric English Marine Observed at
Water Temperature 29.5 °C 85.1 °F 85.1 °F Jul 02 12:06 CDT
00h06m ago
Salinity 1.700 psu 1.700 psu 1.700 psu Jul 02 12:06 CDT
00h06m ago

Maps

Nueces Delta 3
All Stations in Area
Entire Network
 

Recent Observations

Date/Time Water
Temp (°F)
Sal (psu)
Jul 02 12:00 CDT 85.1 1.700
Jul 02 11:00 CDT 84.2 1.800
Jul 02 10:00 CDT 83.5 2.000
Jul 02 09:00 CDT 82.9 2.000
Jul 02 08:00 CDT 82.8 2.000
Jul 02 07:00 CDT 82.8 2.100
Jul 02 06:00 CDT 83.1 2.100
Jul 02 05:00 CDT 83.3 2.100
Jul 02 04:00 CDT 83.7 2.200
Jul 02 03:00 CDT 84.0 2.200
Jul 02 02:00 CDT 84.6 2.100
Jul 02 01:00 CDT 85.1 2.100
Jul 02 00:00 CDT 85.6 1.800
Jul 01 23:00 CDT 86.2 1.800
Jul 01 22:00 CDT 86.9 1.700
Jul 01 21:00 CDT 87.8 1.600
Jul 01 20:00 CDT 88.2 1.500
Jul 01 19:00 CDT 88.2 1.600
Jul 01 18:00 CDT 88.2 1.600
Jul 01 16:00 CDT 87.6 1.700
Jul 01 15:00 CDT 87.3 1.700
Jul 01 14:00 CDT 86.2 1.700
Jul 01 13:00 CDT 85.1 1.700
Jul 01 12:00 CDT 83.8 1.800

Historical Data Availability